Time;durP1;ratioP1;P1;durP2;ratioP2;P2;SDS_P1;SDS_P2;PMS_P1;PMS_P2;Temp;Humidity;BMP_temperature;BMP_pressure;BME280_temperature;BME280_humidity;BME280_pressure;Samples;Min_cycle;Max_cycle;Signal;HPM_P1;HPM_P2
2022/08/19 00:00:37;;;;;;;;;;;;;;;28.29;60.72;99156.25;4500285;31;19999;-87
2022/08/19 00:03:03;;;;;;;;;;;;;;;28.38;60.73;99160.50;4497576;31;20002;-86
2022/08/19 00:05:28;;;;;;;;;;;;;;;28.37;60.73;99162.34;4500019;31;20016;-85
2022/08/19 00:07:59;;;;;;;;;;;;;;;28.23;60.72;99165.78;4499507;31;24871;-85
2022/08/19 00:10:24;;;;;;;;;;;;;;;28.21;60.72;99165.13;4490989;31;19984;-86
2022/08/19 00:12:50;;;;;;;;;;;;;;;28.10;60.71;99155.63;4511989;31;20016;-86
2022/08/19 00:15:15;;;;;;;;;;;;;;;28.17;60.71;99163.81;4517421;31;20007;-86
2022/08/19 00:17:44;;;;;;;;;;;;;;;28.17;60.71;99154.94;4516896;31;20032;-84
2022/08/19 00:20:17;;;;;;;;;;;;;;;28.20;60.71;99163.47;4494156;31;20036;-85
2022/08/19 00:22:42;;;;;;;;;;;;;;;28.17;60.72;99160.31;4509091;31;20033;-85
2022/08/19 00:25:08;;;;;;;;;;;;;;;28.08;60.71;99152.31;4497566;31;19992;-87
2022/08/19 00:27:33;;;;;;;;;;;;;;;28.07;60.71;99163.19;4500027;31;20339;-86
2022/08/19 00:29:58;;;;;;;;;;;;;;;27.99;60.71;99163.22;4498965;31;36042;-87
2022/08/19 00:32:24;;;;;;;;;;;;;;;28.07;60.71;99160.50;4500009;31;20007;-87
2022/08/19 00:34:51;;;;;;;;;;;;;;;27.97;60.71;99168.75;4501714;31;19994;-86
2022/08/19 00:37:16;;;;;;;;;;;;;;;27.98;60.71;99154.37;4509080;31;20003;-86
2022/08/19 00:39:41;;;;;;;;;;;;;;;28.13;60.71;99162.47;4499079;31;36109;-85
2022/08/19 00:42:07;;;;;;;;;;;;;;;28.10;60.71;99160.16;4503671;31;26509;-86
2022/08/19 00:44:32;;;;;;;;;;;;;;;28.01;60.70;99154.03;4493116;31;19996;-86
2022/08/19 00:46:58;;;;;;;;;;;;;;;28.02;60.70;99158.38;4507633;31;31577;-86
2022/08/19 00:49:30;;;;;;;;;;;;;;;28.13;60.71;99149.09;4499868;31;19984;-86
2022/08/19 00:51:55;;;;;;;;;;;;;;;28.02;60.70;99147.66;4511323;31;19976;-86
2022/08/19 00:54:21;;;;;;;;;;;;;;;27.97;60.71;99151.88;4516589;31;20309;-85
2022/08/19 00:56:46;;;;;;;;;;;;;;;28.06;60.71;99150.81;4517166;31;19988;-95
2022/08/19 00:59:11;;;;;;;;;;;;;;;28.02;60.70;99150.34;4505536;31;20368;-94
2022/08/19 01:01:37;;;;;;;;;;;;;;;28.01;60.71;99153.19;4498972;31;20003;-94
2022/08/19 01:04:02;;;;;;;;;;;;;;;27.89;60.69;99151.91;4500799;31;20267;-94
2022/08/19 01:06:28;;;;;;;;;;;;;;;27.99;60.70;99145.34;4495502;31;20008;-94
2022/08/19 01:08:53;;;;;;;;;;;;;;;27.91;60.70;99140.00;4494910;31;27114;-96
2022/08/19 01:11:19;;;;;;;;;;;;;;;28.00;60.70;99143.50;4502705;31;20019;-96
2022/08/19 01:13:44;;;;;;;;;;;;;;;28.05;60.72;99141.13;4502436;31;19988;-95
2022/08/19 01:16:09;;;;;;;;;;;;;;;28.05;60.71;99139.28;4502472;31;20088;-96
2022/08/19 01:18:39;;;;;;;;;;;;;;;28.01;60.70;99139.81;4502237;31;20020;-96
2022/08/19 01:21:33;;;;;;;;;;;;;;;27.93;60.70;99137.19;4502747;31;19980;-96
2022/08/19 01:23:59;;;;;;;;;;;;;;;27.95;60.70;99143.19;4488942;31;19992;-96
2022/08/19 01:26:24;;;;;;;;;;;;;;;27.92;60.70;99136.34;4502778;31;20430;-96
2022/08/19 01:28:50;;;;;;;;;;;;;;;27.94;60.70;99134.34;4502522;31;20021;-95
2022/08/19 01:31:16;;;;;;;;;;;;;;;27.80;60.69;99135.91;4502676;31;19988;-95
2022/08/19 01:33:42;;;;;;;;;;;;;;;27.86;60.70;99131.69;4502672;31;20323;-96
2022/08/19 01:36:08;;;;;;;;;;;;;;;27.80;60.69;99133.22;4502355;31;20046;-94
2022/08/19 01:38:34;;;;;;;;;;;;;;;27.87;60.69;99132.50;4502607;31;19948;-96
2022/08/19 01:41:00;;;;;;;;;;;;;;;27.75;60.69;99126.72;4502999;31;20336;-94
2022/08/19 01:51:11;;;;;;;;;;;;;;;27.81;60.70;99105.47;4664035;26;19989;-96
2022/08/19 02:04:15;;;;;;;;;;;;;;;27.83;60.70;99083.88;5232113;26;19958;-92
2022/08/19 02:17:01;;;;;;;;;;;;;;;27.70;60.68;99089.81;4625646;26;19998;-96
2022/08/19 02:19:30;;;;;;;;;;;;;;;27.77;60.69;99095.31;4468215;32;19993;-96
2022/08/19 02:27:06;;;;;;;;;;;;;;;27.69;60.68;99072.13;4904066;26;19961;-95
2022/08/19 02:29:33;;;;;;;;;;;;;;;27.71;60.69;99064.75;4438302;32;19977;-96
2022/08/19 02:32:30;;;;;;;;;;;;;;;27.75;60.69;99073.25;4440158;32;19987;-96
2022/08/19 02:35:09;;;;;;;;;;;;;;;27.61;60.69;99081.97;4440398;32;20002;-96
2022/08/19 02:40:37;;;;;;;;;;;;;;;27.58;60.69;99085.00;4453814;32;20729;-96
2022/08/19 02:45:57;;;;;;;;;;;;;;;27.48;60.68;99090.56;5126642;26;19965;-95
2022/08/19 02:50:57;;;;;;;;;;;;;;;27.47;60.67;99088.88;4916756;26;20038;-96
2022/08/19 02:53:23;;;;;;;;;;;;;;;27.44;60.68;99092.72;4411183;32;20032;-96
2022/08/19 02:55:48;;;;;;;;;;;;;;;27.53;60.68;99098.88;4415019;32;20006;-96
2022/08/19 02:58:14;;;;;;;;;;;;;;;27.55;60.68;99099.53;4412858;32;20013;-95
2022/08/19 03:00:43;;;;;;;;;;;;;;;27.35;60.68;99103.63;4420717;32;20005;-96
2022/08/19 03:03:25;;;;;;;;;;;;;;;27.33;60.67;99090.44;4420463;32;19965;-96
2022/08/19 03:05:50;;;;;;;;;;;;;;;27.34;60.67;99107.28;4427532;32;19969;-96
2022/08/19 03:08:16;;;;;;;;;;;;;;;27.38;60.67;99098.75;4411170;32;20013;-96
2022/08/19 03:11:10;;;;;;;;;;;;;;;27.37;60.67;99104.28;4411187;32;20057;-96
2022/08/19 03:19:43;;;;;;;;;;;;;;;27.27;60.67;99119.69;4450613;32;19972;-96
2022/08/19 03:22:09;;;;;;;;;;;;;;;27.24;60.66;99117.34;4453700;32;19993;-96
2022/08/19 03:33:57;;;;;;;;;;;;;;;27.14;60.66;99133.56;4456466;32;19946;-90
2022/08/19 03:36:25;;;;;;;;;;;;;;;27.23;60.66;99131.72;4464586;32;19953;-96
2022/08/19 03:38:51;;;;;;;;;;;;;;;27.13;60.66;99121.22;4456700;32;20049;-94
2022/08/19 03:41:18;;;;;;;;;;;;;;;27.04;60.65;99131.09;4441258;32;19970;-96
2022/08/19 03:43:49;;;;;;;;;;;;;;;27.03;60.65;99132.09;4428195;32;19978;-96
2022/08/19 03:46:22;;;;;;;;;;;;;;;27.08;60.65;99142.25;4443302;32;19954;-96
2022/08/19 03:57:29;;;;;;;;;;;;;;;27.08;60.65;99144.94;4437250;32;19962;-96
2022/08/19 04:06:14;;;;;;;;;;;;;;;27.12;60.66;99152.44;4655295;26;19977;-90
2022/08/19 04:11:21;;;;;;;;;;;;;;;26.96;60.66;99160.41;4889155;26;19953;-96
2022/08/19 04:13:47;;;;;;;;;;;;;;;27.09;60.66;99157.28;4444084;32;19981;-95
2022/08/19 04:16:12;;;;;;;;;;;;;;;27.00;60.65;99159.12;4444647;32;19992;-95
2022/08/19 04:18:38;;;;;;;;;;;;;;;27.14;60.66;99165.63;4445655;32;20319;-96
2022/08/19 04:21:03;;;;;;;;;;;;;;;27.12;60.66;99162.28;4454238;32;20014;-96
2022/08/19 04:23:37;;;;;;;;;;;;;;;27.26;60.67;99161.59;4454754;32;19977;-93
2022/08/19 04:26:04;;;;;;;;;;;;;;;27.25;60.66;99151.09;4606253;26;19982;-95
2022/08/19 04:44:42;;;;;;;;;;;;;;;27.44;60.67;99164.88;4989330;26;19999;-94
2022/08/19 04:47:08;;;;;;;;;;;;;;;27.50;60.68;99161.56;4454579;32;19997;-95
2022/08/19 04:49:33;;;;;;;;;;;;;;;27.54;60.68;99170.06;4446173;32;19977;-96
2022/08/19 04:51:58;;;;;;;;;;;;;;;27.62;60.68;99162.03;4445961;32;19993;-96
2022/08/19 04:54:24;;;;;;;;;;;;;;;27.64;60.68;99167.22;4447658;32;20026;-94
2022/08/19 04:56:50;;;;;;;;;;;;;;;27.64;60.68;99169.87;4442635;32;19946;-95
2022/08/19 04:59:16;;;;;;;;;;;;;;;27.75;60.69;99180.22;4429872;32;20006;-95
2022/08/19 05:01:41;;;;;;;;;;;;;;;27.86;60.69;99176.31;4442465;32;20336;-95
2022/08/19 05:04:07;;;;;;;;;;;;;;;27.93;60.69;99172.78;4442476;32;19985;-95
2022/08/19 05:06:33;;;;;;;;;;;;;;;27.87;60.69;99176.16;4442552;32;20344;-96
2022/08/19 05:08:58;;;;;;;;;;;;;;;27.98;60.71;99177.63;4442429;32;20010;-96
2022/08/19 05:11:28;;;;;;;;;;;;;;;27.98;60.70;99173.09;4443686;32;19989;-95
2022/08/19 05:13:53;;;;;;;;;;;;;;;28.02;60.69;99170.91;4443594;32;20012;-94
2022/08/19 05:16:19;;;;;;;;;;;;;;;28.20;60.71;99170.66;4442164;32;28737;-94
2022/08/19 05:24:13;;;;;;;;;;;;;;;28.46;60.73;99167.69;4445430;32;20021;-93
2022/08/19 05:26:39;;;;;;;;;;;;;;;28.48;60.73;99171.00;4442342;32;20026;-94
2022/08/19 05:29:05;;;;;;;;;;;;;;;28.54;60.73;99164.94;4442602;32;19985;-95
2022/08/19 05:31:30;;;;;;;;;;;;;;;28.56;60.73;99170.94;4442931;32;19989;-96
2022/08/19 05:33:58;;;;;;;;;;;;;;;28.62;60.74;99176.41;4442560;32;20035;-94
2022/08/19 05:36:23;;;;;;;;;;;;;;;28.73;60.74;99180.53;4442072;32;20060;-92
2022/08/19 05:38:49;;;;;;;;;;;;;;;28.94;60.75;99175.38;4441213;32;27801;-95
2022/08/19 05:41:16;;;;;;;;;;;;;;;28.92;60.75;99185.44;4440988;32;19997;-95
2022/08/19 05:43:41;;;;;;;;;;;;;;;28.95;60.74;99179.72;4429738;32;20325;-96
2022/08/19 05:46:07;;;;;;;;;;;;;;;29.01;60.76;99181.66;4429299;32;19985;-95
2022/08/19 05:48:32;;;;;;;;;;;;;;;29.15;60.75;99187.25;4428901;32;20036;-95
2022/08/19 05:50:59;;;;;;;;;;;;;;;29.13;60.76;99181.25;4429456;32;19993;-95
2022/08/19 05:53:24;;;;;;;;;;;;;;;29.30;60.76;99175.53;4429229;32;19993;-94
2022/08/19 05:55:49;;;;;;;;;;;;;;;29.29;60.76;99173.03;4429039;32;19981;-94
2022/08/19 05:58:15;;;;;;;;;;;;;;;29.44;60.77;99173.06;4429372;32;20013;-95
2022/08/19 06:00:40;;;;;;;;;;;;;;;29.39;60.77;99170.94;4429477;32;19989;-95
2022/08/19 06:03:06;;;;;;;;;;;;;;;29.53;60.78;99171.97;4430189;32;20258;-93
2022/08/19 06:05:31;;;;;;;;;;;;;;;29.63;60.79;99168.00;4429034;32;25125;-93
2022/08/19 06:07:56;;;;;;;;;;;;;;;29.70;60.78;99167.25;4429812;32;19985;-94
2022/08/19 06:10:21;;;;;;;;;;;;;;;29.63;60.77;99167.19;4431876;32;20025;-94
2022/08/19 06:12:47;;;;;;;;;;;;;;;29.75;60.79;99157.63;4441849;32;20025;-95
2022/08/19 06:15:13;;;;;;;;;;;;;;;29.79;60.78;99161.59;4443732;32;19946;-94
2022/08/19 06:17:38;;;;;;;;;;;;;;;29.91;60.80;99156.59;4456487;32;19983;-92
2022/08/19 06:20:04;;;;;;;;;;;;;;;29.97;60.81;99163.06;4437962;32;20005;-94
2022/08/19 06:22:29;;;;;;;;;;;;;;;29.98;60.80;99154.81;4430244;32;19957;-93
2022/08/19 06:24:55;;;;;;;;;;;;;;;30.02;60.80;99145.38;4429914;32;20348;-94
2022/08/19 06:27:20;;;;;;;;;;;;;;;30.07;60.80;99156.44;4428939;32;20026;-93
2022/08/19 06:29:46;;;;;;;;;;;;;;;30.14;60.81;99149.28;4428584;32;20084;-95
2022/08/19 06:32:11;;;;;;;;;;;;;;;30.22;60.81;99146.47;4428762;32;19993;-94
2022/08/19 06:34:37;;;;;;;;;;;;;;;30.16;60.81;99146.41;4441396;32;20333;-93
2022/08/19 06:37:02;;;;;;;;;;;;;;;30.22;60.82;99134.91;4428507;32;20323;-94
2022/08/19 06:39:29;;;;;;;;;;;;;;;30.22;60.81;99135.72;4441758;32;20046;-95
2022/08/19 06:41:55;;;;;;;;;;;;;;;30.41;60.82;99130.75;4428419;32;19997;-93
2022/08/19 06:44:20;;;;;;;;;;;;;;;30.56;60.82;99126.16;4427842;32;20634;-93
2022/08/19 06:46:46;;;;;;;;;;;;;;;30.59;60.82;99133.00;4428141;32;20062;-91
2022/08/19 06:49:13;;;;;;;;;;;;;;;30.74;60.83;99136.47;4441100;32;20023;-94
2022/08/19 06:51:39;;;;;;;;;;;;;;;30.95;60.85;99144.50;4428122;32;19993;-94
2022/08/19 06:54:04;;;;;;;;;;;;;;;30.95;60.84;99146.34;4442703;32;19991;-92
2022/08/19 06:56:38;;;;;;;;;;;;;;;31.15;60.87;99145.47;4429756;32;20012;-93
2022/08/19 06:59:04;;;;;;;;;;;;;;;31.15;60.86;99161.63;4430681;32;20052;-93
2022/08/19 07:01:30;;;;;;;;;;;;;;;31.22;60.86;99164.38;4441378;32;20086;-90
2022/08/19 07:03:56;;;;;;;;;;;;;;;31.31;60.87;99173.97;4429173;32;20350;-90
2022/08/19 07:06:21;;;;;;;;;;;;;;;31.45;60.87;99170.31;4441849;32;19989;-92
2022/08/19 07:08:47;;;;;;;;;;;;;;;31.50;60.88;99168.94;4428565;32;22607;-91
2022/08/19 07:11:12;;;;;;;;;;;;;;;31.61;60.88;99171.88;4442057;32;19989;-88
2022/08/19 07:13:38;;;;;;;;;;;;;;;31.69;60.89;99179.78;4441752;32;20317;-90
2022/08/19 07:16:04;;;;;;;;;;;;;;;31.72;60.89;99181.31;4429050;32;19980;-89
2022/08/19 07:18:30;;;;;;;;;;;;;;;31.89;60.90;99181.78;4441733;32;19997;-88
2022/08/19 07:21:26;;;;;;;;;;;;;;;31.87;60.90;99183.84;4441141;32;26866;-87
2022/08/19 07:23:51;;;;;;;;;;;;;;;31.89;60.90;99179.91;4439927;32;19985;-89
2022/08/19 07:26:24;;;;;;;;;;;;;;;31.97;60.90;99187.84;4456096;32;20023;-88
2022/08/19 07:28:49;;;;;;;;;;;;;;;31.97;60.90;99171.69;4456101;32;19985;-89
2022/08/19 07:31:18;;;;;;;;;;;;;;;32.01;60.90;99175.63;4441825;32;19999;-86
2022/08/19 07:33:44;;;;;;;;;;;;;;;32.21;60.92;99175.72;4441815;32;19969;-88
2022/08/19 07:36:13;;;;;;;;;;;;;;;32.28;60.92;99173.06;4440451;32;19980;-87
2022/08/19 07:38:40;;;;;;;;;;;;;;;32.45;60.93;99177.06;4440637;32;19989;-88
2022/08/19 07:41:05;;;;;;;;;;;;;;;32.47;60.93;99169.59;4441036;32;19993;-89
2022/08/19 07:43:31;;;;;;;;;;;;;;;32.63;60.93;99171.06;4440794;32;20574;-88
2022/08/19 07:45:56;;;;;;;;;;;;;;;32.79;60.94;99168.00;4455599;32;19965;-88
2022/08/19 07:48:24;;;;;;;;;;;;;;;32.91;60.94;99160.16;4440833;32;20269;-89
2022/08/19 07:50:50;;;;;;;;;;;;;;;33.08;60.96;99171.31;4441359;32;19993;-89
2022/08/19 07:53:15;;;;;;;;;;;;;;;33.17;60.96;99170.94;4454940;32;20030;-90
2022/08/19 07:55:40;;;;;;;;;;;;;;;33.24;60.97;99170.91;4440552;32;19981;-87
2022/08/19 07:58:05;;;;;;;;;;;;;;;33.33;60.97;99179.63;4441748;32;20054;-89
2022/08/19 08:00:31;;;;;;;;;;;;;;;33.38;60.96;99182.56;4441113;32;25264;-89
2022/08/19 08:02:56;;;;;;;;;;;;;;;33.41;60.97;99185.66;4455208;32;29027;-89
2022/08/19 08:10:50;;;;;;;;;;;;;;;33.66;60.98;99172.31;4443663;32;20034;-89
2022/08/19 08:13:15;;;;;;;;;;;;;;;33.82;60.99;99182.62;4441646;32;19973;-89
2022/08/19 08:15:41;;;;;;;;;;;;;;;33.80;60.99;99173.09;4441478;32;19991;-88
2022/08/19 08:18:06;;;;;;;;;;;;;;;33.76;60.99;99183.50;4455381;32;20637;-89
2022/08/19 08:20:31;;;;;;;;;;;;;;;33.86;61.00;99175.81;4428758;32;20018;-89
2022/08/19 08:25:41;;;;;;;;;;;;;;;33.80;61.00;99173.91;4443717;32;19983;-89
2022/08/19 08:28:07;;;;;;;;;;;;;;;33.98;61.00;99172.44;4441409;32;20029;-90
2022/08/19 08:30:34;;;;;;;;;;;;;;;34.16;61.01;99170.69;4441796;32;20340;-88
2022/08/19 08:32:59;;;;;;;;;;;;;;;34.50;61.02;99173.22;4455683;32;20038;-87
2022/08/19 08:35:24;;;;;;;;;;;;;;;34.58;61.03;99154.06;4454479;32;34251;-89
2022/08/19 08:37:51;;;;;;;;;;;;;;;34.80;61.04;99146.44;4428490;32;19993;-87
2022/08/19 08:40:16;;;;;;;;;;;;;;;34.89;61.04;99142.41;4428679;32;20007;-89
2022/08/19 08:42:43;;;;;;;;;;;;;;;35.02;61.05;99128.78;4441218;32;19981;-88
2022/08/19 08:45:14;;;;;;;;;;;;;;;35.28;61.06;99119.59;4440982;32;20467;-88
2022/08/19 08:47:39;;;;;;;;;;;;;;;35.42;61.08;99131.13;4441536;32;20055;-88
2022/08/19 08:50:11;;;;;;;;;;;;;;;35.58;61.08;99144.88;4441507;32;19989;-87
2022/08/19 08:52:37;;;;;;;;;;;;;;;35.77;61.08;99158.44;4429024;32;20063;-87
2022/08/19 08:55:09;;;;;;;;;;;;;;;35.95;61.09;99147.59;4428731;32;19965;-86
2022/08/19 08:57:36;;;;;;;;;;;;;;;36.14;61.09;99140.25;4441578;32;20038;-90
2022/08/19 09:00:04;;;;;;;;;;;;;;;36.20;61.10;99134.78;4441807;32;20317;-88
2022/08/19 09:02:29;;;;;;;;;;;;;;;36.27;61.11;99135.50;4440520;32;19997;-86
2022/08/19 09:04:55;;;;;;;;;;;;;;;36.33;61.11;99124.81;4453905;32;33014;-88
2022/08/19 09:07:39;;;;;;;;;;;;;;;36.42;61.11;99128.84;4440649;32;27197;-87
2022/08/19 09:10:10;;;;;;;;;;;;;;;36.30;61.12;99128.78;4460800;32;19949;-87
2022/08/19 09:13:02;;;;;;;;;;;;;;;36.10;61.10;99126.34;4455864;32;20020;-88
2022/08/19 09:15:47;;;;;;;;;;;;;;;36.05;61.11;99134.34;4439959;32;19969;-88
2022/08/19 09:18:13;;;;;;;;;;;;;;;36.20;61.10;99131.22;4454990;32;20036;-88
2022/08/19 09:20:38;;;;;;;;;;;;;;;36.23;61.11;99123.47;4441722;32;19995;-87
2022/08/19 09:23:04;;;;;;;;;;;;;;;36.41;61.12;99109.03;4455182;32;20015;-87
2022/08/19 09:25:31;;;;;;;;;;;;;;;36.52;61.12;99105.53;4441468;32;20014;-88
2022/08/19 09:27:57;;;;;;;;;;;;;;;36.44;61.12;99121.34;4428668;32;20040;-89
2022/08/19 09:30:23;;;;;;;;;;;;;;;36.49;61.12;99106.00;4441186;32;19981;-89
2022/08/19 09:32:49;;;;;;;;;;;;;;;36.82;61.14;99115.53;4428758;32;19959;-87
2022/08/19 09:35:14;;;;;;;;;;;;;;;36.86;61.14;99112.09;4440597;32;19969;-87
2022/08/19 09:37:39;;;;;;;;;;;;;;;37.00;61.15;99115.41;4427362;32;19989;-86
2022/08/19 09:40:06;;;;;;;;;;;;;;;37.04;61.15;99113.06;4440765;32;19984;-86
2022/08/19 09:42:31;;;;;;;;;;;;;;;36.93;61.14;99105.75;4454774;32;20048;-88
2022/08/19 09:44:56;;;;;;;;;;;;;;;37.07;61.15;99101.72;4440720;32;20243;-87
2022/08/19 09:47:21;;;;;;;;;;;;;;;37.10;61.16;99107.50;4427154;32;21106;-88
2022/08/19 09:49:48;;;;;;;;;;;;;;;36.98;61.14;99108.56;4440037;32;19998;-87
2022/08/19 09:52:15;;;;;;;;;;;;;;;36.94;61.14;99096.56;4440966;32;19995;-88
2022/08/19 09:54:40;;;;;;;;;;;;;;;37.16;61.15;99090.28;4427946;32;20347;-88
2022/08/19 09:57:05;;;;;;;;;;;;;;;37.42;61.16;99090.88;4441034;32;19997;-88
2022/08/19 09:59:31;;;;;;;;;;;;;;;37.64;61.17;99085.63;4441260;32;19981;-87
2022/08/19 10:01:56;;;;;;;;;;;;;;;37.85;61.19;99097.72;4439046;32;25112;-88
2022/08/19 10:04:21;;;;;;;;;;;;;;;37.98;61.18;99087.41;4425910;32;39039;-88
2022/08/19 10:06:47;;;;;;;;;;;;;;;37.99;61.19;99078.19;4439480;32;19993;-86
2022/08/19 10:09:12;;;;;;;;;;;;;;;37.90;61.19;99084.28;4440484;32;19985;-87
2022/08/19 10:11:41;;;;;;;;;;;;;;;38.14;61.20;99076.84;4440433;32;19977;-87
2022/08/19 10:14:06;;;;;;;;;;;;;;;38.24;61.21;99077.84;4441027;32;19969;-88
2022/08/19 10:16:31;;;;;;;;;;;;;;;38.44;61.21;99069.22;4441138;32;20318;-88
2022/08/19 10:18:56;;;;;;;;;;;;;;;38.57;61.21;99076.25;4436613;32;29355;-86
2022/08/19 10:21:23;;;;;;;;;;;;;;;38.32;61.21;99082.06;4437537;32;26312;-87
2022/08/19 10:23:49;;;;;;;;;;;;;;;38.45;61.22;99065.44;4444107;32;19977;-87
2022/08/19 10:26:16;;;;;;;;;;;;;;;38.65;61.23;99063.09;4445996;32;20017;-87
2022/08/19 10:28:41;;;;;;;;;;;;;;;38.76;61.23;99055.06;4441084;32;20008;-88
2022/08/19 10:31:07;;;;;;;;;;;;;;;38.69;61.23;99061.50;4455315;32;19992;-87
2022/08/19 10:33:32;;;;;;;;;;;;;;;38.48;61.23;99064.94;4456860;32;19960;-88
2022/08/19 10:35:59;;;;;;;;;;;;;;;38.41;61.22;99075.16;4470408;32;19954;-88
2022/08/19 10:38:24;;;;;;;;;;;;;;;38.54;61.22;99072.09;4444885;32;20010;-88
2022/08/19 10:40:49;;;;;;;;;;;;;;;38.54;61.22;99076.72;4457382;32;27259;-86
2022/08/19 10:43:16;;;;;;;;;;;;;;;38.84;61.24;99071.00;4443294;32;19977;-87
2022/08/19 10:45:42;;;;;;;;;;;;;;;39.02;61.24;99062.53;4436573;32;20290;-88
2022/08/19 10:48:07;;;;;;;;;;;;;;;39.23;61.26;99064.47;4436909;32;20327;-88
2022/08/19 10:53:16;;;;;;;;;;;;;;;39.55;61.26;99058.41;4438996;32;20055;-87
2022/08/19 10:58:26;;;;;;;;;;;;;;;39.55;61.26;99058.41;4438833;32;20499;-87
2022/08/19 11:00:52;;;;;;;;;;;;;;;39.94;61.28;99056.34;4423391;32;19974;-88
2022/08/19 11:03:18;;;;;;;;;;;;;;;40.09;61.29;99053.81;4424232;32;19974;-89
2022/08/19 11:05:43;;;;;;;;;;;;;;;40.21;61.30;99056.37;4425706;32;19984;-89
2022/08/19 11:08:11;;;;;;;;;;;;;;;40.36;61.30;99058.44;4426046;32;19994;-88
2022/08/19 11:10:37;;;;;;;;;;;;;;;40.59;61.31;99049.09;4431638;32;20338;-89
2022/08/19 11:13:02;;;;;;;;;;;;;;;40.78;61.33;99056.59;4425847;32;19992;-88
2022/08/19 11:15:28;;;;;;;;;;;;;;;40.99;61.33;99060.31;4424445;32;19981;-87
2022/08/19 11:17:54;;;;;;;;;;;;;;;41.10;61.35;99064.72;4425272;32;19978;-89
2022/08/19 11:20:23;;;;;;;;;;;;;;;41.09;61.34;99057.63;4423929;32;19996;-88
2022/08/19 11:22:48;;;;;;;;;;;;;;;41.33;61.34;99057.22;4424002;32;20019;-89
2022/08/19 11:25:13;;;;;;;;;;;;;;;41.42;61.35;99063.03;4425348;32;20025;-88
2022/08/19 11:27:41;;;;;;;;;;;;;;;41.36;61.36;99062.16;4423915;32;19985;-88
2022/08/19 11:30:07;;;;;;;;;;;;;;;41.37;61.35;99050.97;4424136;32;20023;-90
2022/08/19 11:32:33;;;;;;;;;;;;;;;41.19;61.33;99067.81;4422672;32;19977;-89
2022/08/19 11:34:58;;;;;;;;;;;;;;;41.28;61.35;99058.03;4426790;32;20327;-88
2022/08/19 11:37:23;;;;;;;;;;;;;;;41.23;61.35;99055.28;4439906;32;28449;-88
2022/08/19 11:39:49;;;;;;;;;;;;;;;41.39;61.35;99051.50;4426015;32;23929;-88
2022/08/19 11:44:58;;;;;;;;;;;;;;;41.40;61.35;99055.87;4428634;32;19992;-89
2022/08/19 11:47:23;;;;;;;;;;;;;;;41.31;61.35;99045.75;4426609;32;19982;-88
2022/08/19 11:49:49;;;;;;;;;;;;;;;41.28;61.35;99043.56;4426711;32;20001;-88
2022/08/19 11:52:14;;;;;;;;;;;;;;;41.36;61.36;99043.84;4426967;32;20503;-89
2022/08/19 11:54:40;;;;;;;;;;;;;;;41.13;61.34;99041.53;4440640;32;20023;-89
2022/08/19 11:57:05;;;;;;;;;;;;;;;41.00;61.33;99040.13;4426504;32;20046;-89
2022/08/19 11:59:30;;;;;;;;;;;;;;;41.26;61.34;99030.19;4426225;32;29468;-89
2022/08/19 12:01:56;;;;;;;;;;;;;;;41.33;61.35;99041.66;4441327;32;19978;-88
2022/08/19 12:04:22;;;;;;;;;;;;;;;41.33;61.35;99032.66;4427204;32;20100;-90
2022/08/19 12:06:47;;;;;;;;;;;;;;;41.49;61.36;99044.47;4426612;32;20009;-88
2022/08/19 12:09:13;;;;;;;;;;;;;;;41.45;61.36;99043.38;4439876;32;30772;-88
2022/08/19 12:11:39;;;;;;;;;;;;;;;41.53;61.36;99042.84;4426681;32;20008;-88
2022/08/19 12:14:04;;;;;;;;;;;;;;;41.41;61.35;99054.00;4413640;32;19989;-89
2022/08/19 12:16:30;;;;;;;;;;;;;;;41.45;61.35;99046.91;4425777;32;25242;-89
2022/08/19 12:18:55;;;;;;;;;;;;;;;41.56;61.36;99051.31;4426490;32;20026;-88
2022/08/19 12:21:22;;;;;;;;;;;;;;;41.51;61.35;99050.47;4426702;32;19986;-90
2022/08/19 12:23:48;;;;;;;;;;;;;;;41.75;61.37;99048.13;4426643;32;20009;-89
2022/08/19 12:26:13;;;;;;;;;;;;;;;41.78;61.37;99045.69;4426299;32;19993;-89
2022/08/19 12:28:38;;;;;;;;;;;;;;;41.82;61.37;99048.69;4425784;32;25301;-89
2022/08/19 12:31:03;;;;;;;;;;;;;;;41.76;61.36;99041.56;4426165;32;20022;-89
2022/08/19 12:33:29;;;;;;;;;;;;;;;41.86;61.38;99038.84;4426185;32;20259;-90
2022/08/19 12:35:54;;;;;;;;;;;;;;;41.84;61.37;99024.63;4426307;32;20004;-88
2022/08/19 12:38:19;;;;;;;;;;;;;;;41.73;61.37;99028.44;4425648;32;27497;-89
2022/08/19 12:40:45;;;;;;;;;;;;;;;41.60;61.36;99019.63;4426030;32;20025;-89
2022/08/19 12:43:11;;;;;;;;;;;;;;;41.59;61.36;99019.91;4426165;32;20050;-90
2022/08/19 12:45:37;;;;;;;;;;;;;;;41.55;61.37;99019.63;4440250;32;19977;-90
2022/08/19 12:48:02;;;;;;;;;;;;;;;41.68;61.37;99008.22;4426390;32;19988;-90
2022/08/19 12:50:28;;;;;;;;;;;;;;;41.74;61.37;99009.03;4425893;32;20338;-89
2022/08/19 12:52:53;;;;;;;;;;;;;;;41.80;61.37;99001.66;4426371;32;19985;-88
2022/08/19 12:55:18;;;;;;;;;;;;;;;41.71;61.37;99014.25;4425736;32;28648;-88
2022/08/19 12:57:44;;;;;;;;;;;;;;;41.69;61.37;99009.87;4439943;32;19992;-88
2022/08/19 13:00:11;;;;;;;;;;;;;;;41.78;61.38;99017.53;4426299;32;20246;-88
2022/08/19 13:02:37;;;;;;;;;;;;;;;41.88;61.38;99001.97;4413484;32;20000;-88
2022/08/19 13:05:03;;;;;;;;;;;;;;;41.75;61.37;99005.22;4414552;32;19998;-90
2022/08/19 13:07:28;;;;;;;;;;;;;;;41.79;61.38;98994.56;4430395;32;19957;-90
2022/08/19 13:09:53;;;;;;;;;;;;;;;41.66;61.36;99006.84;4433299;32;25251;-89
2022/08/19 13:12:20;;;;;;;;;;;;;;;41.68;61.36;98999.19;4417291;32;20307;-89
2022/08/19 13:14:50;;;;;;;;;;;;;;;41.49;61.36;99000.75;4427044;32;20091;-89
2022/08/19 13:17:15;;;;;;;;;;;;;;;41.62;61.37;98997.50;4427432;32;19958;-89
2022/08/19 13:19:41;;;;;;;;;;;;;;;41.58;61.36;98991.75;4427129;32;20003;-91
2022/08/19 13:22:06;;;;;;;;;;;;;;;41.59;61.36;99004.31;4440123;32;20042;-93
2022/08/19 13:24:32;;;;;;;;;;;;;;;41.53;61.36;98993.66;4426536;32;19996;-92
2022/08/19 13:26:58;;;;;;;;;;;;;;;41.52;61.35;99000.22;4427399;32;19981;-92
2022/08/19 13:34:52;;;;;;;;;;;;;;;41.32;61.35;99004.53;4428803;32;20003;-93
2022/08/19 13:37:40;;;;;;;;;;;;;;;41.04;61.34;99011.19;4425474;32;27147;-90
2022/08/19 13:40:02;;;;;;;;;;;;;;;40.94;61.33;99021.25;4428420;32;19974;-94
2022/08/19 13:42:32;;;;;;;;;;;;;;;40.04;61.30;99034.69;4426183;32;20000;-92
2022/08/19 13:44:58;;;;;;;;;;;;;;;38.67;61.24;99041.06;4426950;32;19998;-93
2022/08/19 13:47:23;;;;;;;;;;;;;;;37.92;61.20;99052.25;4426077;32;20324;-94
2022/08/19 13:49:49;;;;;;;;;;;;;;;37.37;61.17;99069.84;4425443;32;29236;-93
2022/08/19 13:52:15;;;;;;;;;;;;;;;37.01;61.15;99076.38;4426238;32;20142;-90
2022/08/19 13:54:40;;;;;;;;;;;;;;;36.46;61.13;99076.66;4425806;32;20049;-90
2022/08/19 13:57:05;;;;;;;;;;;;;;;36.16;61.12;99071.22;4425054;32;25375;-90
2022/08/19 13:59:30;;;;;;;;;;;;;;;35.80;61.09;99082.97;4425388;32;19981;-90
2022/08/19 14:01:59;;;;;;;;;;;;;;;35.57;61.09;99082.84;4411131;32;25666;-89
2022/08/19 14:04:24;;;;;;;;;;;;;;;35.10;61.07;99069.00;4425728;32;19965;-88
2022/08/19 14:06:49;;;;;;;;;;;;;;;34.80;61.05;99070.72;4439108;32;30607;-89
2022/08/19 14:09:15;;;;;;;;;;;;;;;34.74;61.04;99065.13;4439331;32;23876;-90
2022/08/19 14:11:40;;;;;;;;;;;;;;;34.88;61.05;99062.34;4426270;32;19997;-90
2022/08/19 14:14:05;;;;;;;;;;;;;;;34.84;61.06;99064.66;4426329;32;20019;-90
2022/08/19 14:16:30;;;;;;;;;;;;;;;34.64;61.04;99066.69;4439015;32;26961;-90
2022/08/19 14:18:56;;;;;;;;;;;;;;;34.61;61.04;99059.03;4438861;32;29254;-90
2022/08/19 14:21:22;;;;;;;;;;;;;;;34.65;61.04;99065.63;4412618;32;20008;-90
2022/08/19 14:23:47;;;;;;;;;;;;;;;34.61;61.04;99050.91;4425800;32;20342;-90
2022/08/19 14:26:13;;;;;;;;;;;;;;;34.51;61.03;99047.87;4424887;32;25508;-90
2022/08/19 14:28:40;;;;;;;;;;;;;;;34.47;61.03;99048.31;4425448;32;19988;-89
2022/08/19 14:31:05;;;;;;;;;;;;;;;34.26;61.02;99058.63;4440152;32;20026;-90
2022/08/19 14:33:32;;;;;;;;;;;;;;;34.23;61.02;99057.19;4425585;32;26296;-89
2022/08/19 14:35:57;;;;;;;;;;;;;;;34.19;61.03;99050.56;4426658;32;20026;-90
2022/08/19 14:38:23;;;;;;;;;;;;;;;34.17;61.02;99058.06;4426212;32;19981;-89
2022/08/19 14:40:48;;;;;;;;;;;;;;;34.09;61.01;99061.03;4427110;32;19986;-89
2022/08/19 14:43:14;;;;;;;;;;;;;;;33.89;61.00;99063.84;4428312;32;19981;-90